Time;durP1;ratioP1;P1;durP2;ratioP2;P2;SDS_P1;SDS_P2;PMS_P1;PMS_P2;Temp;Humidity;BMP_temperature;BMP_pressure;BME280_temperature;BME280_humidity;BME280_pressure;Samples;Min_cycle;Max_cycle;Signal;HPM_P1;HPM_P2
2022/06/11 00:00:40;;;;;;;;;;;19.40;99.90;;;;;;5044190;28;19952;-67
2022/06/11 00:03:06;;;;;;;;;;;19.40;99.90;;;;;;5039689;28;19952;-67
2022/06/11 00:05:35;;;;;;;;;;;19.40;99.90;;;;;;5037022;28;19928;-67
2022/06/11 00:08:01;;;;;;;;;;;19.40;99.90;;;;;;5042076;28;19925;-67
2022/06/11 00:10:28;;;;;;;;;;;19.30;99.90;;;;;;5047857;28;19933;-68
2022/06/11 00:12:55;;;;;;;;;;;19.30;99.90;;;;;;5049402;28;19925;-68
2022/06/11 00:15:22;;;;;;;;;;;19.30;99.90;;;;;;5041122;28;19928;-67
2022/06/11 00:17:49;;;;;;;;;;;19.30;99.90;;;;;;5044924;28;19991;-67
2022/06/11 00:20:15;;;;;;;;;;;19.30;99.90;;;;;;5048546;28;19925;-68
2022/06/11 00:22:43;;;;;;;;;;;19.30;99.90;;;;;;5040545;28;19978;-68
2022/06/11 00:25:10;;;;;;;;;;;19.20;99.90;;;;;;5041400;28;20346;-67
2022/06/11 00:27:37;;;;;;;;;;;19.20;99.90;;;;;;5037957;28;19936;-67
2022/06/11 00:30:05;;;;;;;;;;;19.20;99.90;;;;;;5034129;28;19925;-67
2022/06/11 00:32:33;;;;;;;;;;;19.20;99.90;;;;;;5039860;28;20011;-67
2022/06/11 00:35:03;;;;;;;;;;;19.20;99.90;;;;;;5035062;28;19929;-68
2022/06/11 00:37:30;;;;;;;;;;;19.20;99.90;;;;;;5061071;28;19925;-67
2022/06/11 00:39:59;;;;;;;;;;;19.20;99.90;;;;;;5041061;28;19939;-68
2022/06/11 00:42:27;;;;;;;;;;;19.20;99.90;;;;;;5049243;28;19987;-68
2022/06/11 00:45:18;;;;;;;;;;;19.20;99.90;;;;;;5039527;28;19924;-67
2022/06/11 00:47:47;;;;;;;;;;;19.20;99.90;;;;;;5035734;28;19925;-67
2022/06/11 00:50:18;;;;;;;;;;;19.20;99.90;;;;;;5036284;28;20419;-67
2022/06/11 00:52:46;;;;;;;;;;;19.20;99.90;;;;;;5038397;28;20359;-68
2022/06/11 00:55:17;;;;;;;;;;;19.10;99.90;;;;;;5039683;28;20396;-67
2022/06/11 00:57:47;;;;;;;;;;;19.20;99.90;;;;;;5041756;28;19924;-67
2022/06/11 01:00:16;;;;;;;;;;;19.10;99.90;;;;;;5034851;28;19929;-67
2022/06/11 01:02:43;;;;;;;;;;;19.10;99.90;;;;;;5030841;28;19968;-68
2022/06/11 01:05:14;;;;;;;;;;;19.10;99.90;;;;;;5043497;28;19925;-67
2022/06/11 01:07:57;;;;;;;;;;;19.10;99.90;;;;;;5029864;28;19963;-67
2022/06/11 01:10:35;;;;;;;;;;;19.10;99.90;;;;;;5065080;28;19932;-68
2022/06/11 01:13:06;;;;;;;;;;;19.10;99.90;;;;;;5041472;28;19932;-67
2022/06/11 01:15:36;;;;;;;;;;;19.10;99.90;;;;;;5040714;28;20400;-67
2022/06/11 01:18:07;;;;;;;;;;;19.10;99.90;;;;;;5036094;28;20376;-67
2022/06/11 01:20:40;;;;;;;;;;;19.00;99.90;;;;;;5046206;28;19924;-67
2022/06/11 01:23:21;;;;;;;;;;;19.00;99.90;;;;;;5048504;28;20024;-68
2022/06/11 01:25:54;;;;;;;;;;;19.00;99.90;;;;;;5039234;28;20376;-68
2022/06/11 01:28:29;;;;;;;;;;;19.00;99.90;;;;;;5052452;28;20408;-68
2022/06/11 01:31:02;;;;;;;;;;;19.00;99.90;;;;;;5043222;28;19978;-67
2022/06/11 01:33:31;;;;;;;;;;;19.00;99.90;;;;;;5042202;28;19929;-67
2022/06/11 01:36:00;;;;;;;;;;;19.00;99.90;;;;;;5036068;28;20450;-67
2022/06/11 01:38:30;;;;;;;;;;;18.90;99.90;;;;;;5049067;28;20297;-67
2022/06/11 01:41:02;;;;;;;;;;;18.90;99.90;;;;;;5044391;28;19925;-67
2022/06/11 01:43:31;;;;;;;;;;;18.90;99.90;;;;;;5055575;28;19936;-67
2022/06/11 01:46:04;;;;;;;;;;;18.80;99.90;;;;;;5067853;28;19925;-67
2022/06/11 01:48:32;;;;;;;;;;;18.80;99.90;;;;;;5039664;28;20450;-68
2022/06/11 01:51:07;;;;;;;;;;;18.80;99.90;;;;;;5043486;28;19929;-67
2022/06/11 01:53:54;;;;;;;;;;;18.80;99.90;;;;;;5058557;28;19931;-67
2022/06/11 01:56:27;;;;;;;;;;;18.70;99.90;;;;;;5008773;28;20362;-67
2022/06/11 01:59:02;;;;;;;;;;;18.60;99.90;;;;;;5037636;28;19929;-67
2022/06/11 02:01:36;;;;;;;;;;;18.50;99.90;;;;;;5034533;28;20459;-67
2022/06/11 02:04:07;;;;;;;;;;;18.50;99.90;;;;;;5034501;28;19932;-67
2022/06/11 02:06:40;;;;;;;;;;;18.40;99.90;;;;;;5043088;28;19990;-67
2022/06/11 02:09:11;;;;;;;;;;;18.30;99.90;;;;;;5052950;28;19980;-67
2022/06/11 02:11:39;;;;;;;;;;;18.20;99.90;;;;;;5052135;28;19932;-68
2022/06/11 02:14:12;;;;;;;;;;;18.10;99.90;;;;;;5044813;28;19975;-67
2022/06/11 02:16:42;;;;;;;;;;;18.00;99.90;;;;;;5047236;28;19929;-67
2022/06/11 02:19:11;;;;;;;;;;;17.90;99.90;;;;;;5047799;28;19925;-67
2022/06/11 02:21:41;;;;;;;;;;;17.80;99.90;;;;;;5038722;28;19928;-67
2022/06/11 02:24:12;;;;;;;;;;;17.80;99.90;;;;;;5039930;28;19925;-67
2022/06/11 02:26:40;;;;;;;;;;;17.70;99.90;;;;;;5039416;28;19933;-67
2022/06/11 02:29:08;;;;;;;;;;;17.70;99.90;;;;;;5048828;28;19925;-67
2022/06/11 02:31:39;;;;;;;;;;;17.60;99.90;;;;;;5038815;28;19925;-67
2022/06/11 02:34:09;;;;;;;;;;;17.60;99.90;;;;;;5047362;28;20311;-67
2022/06/11 02:36:45;;;;;;;;;;;17.50;99.90;;;;;;5040705;28;19950;-67
2022/06/11 02:39:11;;;;;;;;;;;17.40;99.90;;;;;;5044678;28;19948;-67
2022/06/11 02:41:38;;;;;;;;;;;17.40;99.90;;;;;;5051130;28;19935;-67
2022/06/11 02:44:05;;;;;;;;;;;17.40;99.90;;;;;;5042109;28;19971;-68
2022/06/11 02:46:44;;;;;;;;;;;17.40;99.90;;;;;;5037772;28;20403;-67
2022/06/11 02:49:15;;;;;;;;;;;17.40;99.90;;;;;;5043624;28;19931;-68
2022/06/11 02:51:41;;;;;;;;;;;17.40;99.90;;;;;;5039327;28;19928;-67
2022/06/11 02:54:08;;;;;;;;;;;17.30;99.90;;;;;;5045057;28;19932;-68
2022/06/11 02:56:35;;;;;;;;;;;17.40;99.90;;;;;;5047387;28;20389;-67
2022/06/11 02:59:02;;;;;;;;;;;17.30;99.90;;;;;;5051808;28;19925;-67
2022/06/11 03:01:29;;;;;;;;;;;17.40;99.90;;;;;;5051021;28;19928;-68
2022/06/11 03:03:56;;;;;;;;;;;17.30;99.90;;;;;;5051750;28;19931;-67
2022/06/11 03:06:24;;;;;;;;;;;17.30;99.90;;;;;;5043381;28;19925;-67
2022/06/11 03:08:51;;;;;;;;;;;17.20;99.90;;;;;;5038857;28;19932;-66
2022/06/11 03:11:18;;;;;;;;;;;17.10;99.90;;;;;;5039013;28;19925;-68
2022/06/11 03:13:45;;;;;;;;;;;17.10;99.90;;;;;;5050345;28;20281;-67
2022/06/11 03:16:12;;;;;;;;;;;17.00;99.90;;;;;;5034914;28;19925;-67
2022/06/11 03:18:39;;;;;;;;;;;17.00;99.90;;;;;;5034635;28;19939;-67
2022/06/11 03:21:06;;;;;;;;;;;16.90;99.90;;;;;;5039856;28;19925;-67
2022/06/11 03:23:34;;;;;;;;;;;16.80;99.90;;;;;;5043213;28;19925;-67
2022/06/11 03:26:02;;;;;;;;;;;16.80;99.90;;;;;;5048387;28;19925;-67
2022/06/11 03:28:29;;;;;;;;;;;16.70;99.90;;;;;;5040364;28;19968;-68
2022/06/11 03:30:57;;;;;;;;;;;16.70;99.90;;;;;;5039643;28;19925;-67
2022/06/11 03:33:24;;;;;;;;;;;16.80;99.90;;;;;;5057596;28;19932;-66
2022/06/11 03:35:51;;;;;;;;;;;16.80;99.90;;;;;;5054738;28;20376;-66
2022/06/11 03:38:19;;;;;;;;;;;16.80;99.90;;;;;;5049352;28;19933;-66
2022/06/11 03:40:48;;;;;;;;;;;16.90;99.90;;;;;;5038695;28;19928;-66
2022/06/11 03:43:14;;;;;;;;;;;17.00;99.90;;;;;;5035614;28;19925;-67
2022/06/11 03:45:41;;;;;;;;;;;17.00;99.90;;;;;;5032087;28;20351;-66
2022/06/11 03:48:09;;;;;;;;;;;17.10;99.90;;;;;;5039776;28;19925;-67
2022/06/11 03:50:37;;;;;;;;;;;17.10;99.90;;;;;;5039611;28;19932;-67
2022/06/11 03:53:05;;;;;;;;;;;17.10;99.90;;;;;;5036558;28;19924;-67
2022/06/11 03:55:32;;;;;;;;;;;17.10;99.90;;;;;;5041787;28;19932;-67
2022/06/11 03:58:01;;;;;;;;;;;17.20;99.90;;;;;;5049639;28;19925;-66
2022/06/11 04:03:13;;;;;;;;;;;17.30;99.90;;;;;;5046274;28;20008;-67
2022/06/11 04:05:41;;;;;;;;;;;17.30;99.90;;;;;;5036389;28;20392;-66
2022/06/11 04:08:08;;;;;;;;;;;17.40;99.90;;;;;;5046856;28;20025;-66
2022/06/11 04:10:37;;;;;;;;;;;17.50;99.90;;;;;;5035665;28;19929;-66
2022/06/11 04:13:05;;;;;;;;;;;17.50;99.90;;;;;;5049976;28;19964;-66
2022/06/11 04:15:32;;;;;;;;;;;17.50;99.90;;;;;;5034669;28;19929;-67
2022/06/11 04:18:00;;;;;;;;;;;17.60;99.90;;;;;;5042828;28;19933;-66
2022/06/11 04:20:26;;;;;;;;;;;17.50;99.90;;;;;;5045511;28;19928;-66
2022/06/11 04:22:53;;;;;;;;;;;17.60;99.90;;;;;;5035463;28;19925;-66
2022/06/11 04:25:21;;;;;;;;;;;17.60;99.90;;;;;;5064081;28;19936;-67
2022/06/11 04:27:53;;;;;;;;;;;17.70;99.90;;;;;;5047205;28;19960;-66
2022/06/11 04:30:22;;;;;;;;;;;17.80;99.90;;;;;;5048868;28;20397;-66
2022/06/11 04:32:49;;;;;;;;;;;17.80;99.90;;;;;;5037889;28;19925;-66
2022/06/11 04:35:16;;;;;;;;;;;17.90;99.90;;;;;;5040052;28;19925;-67
2022/06/11 04:37:42;;;;;;;;;;;17.90;99.90;;;;;;5039959;28;19932;-66
2022/06/11 04:40:10;;;;;;;;;;;17.90;99.90;;;;;;5048359;28;19929;-66
2022/06/11 04:42:38;;;;;;;;;;;18.00;99.90;;;;;;5042384;28;19932;-68
2022/06/11 04:45:06;;;;;;;;;;;18.00;99.90;;;;;;5034189;28;19925;-68
2022/06/11 04:47:34;;;;;;;;;;;18.00;99.90;;;;;;5044347;28;19932;-68
2022/06/11 04:50:01;;;;;;;;;;;17.90;99.90;;;;;;5042081;28;19936;-68
2022/06/11 04:52:28;;;;;;;;;;;18.00;99.90;;;;;;5038744;28;20031;-66
2022/06/11 04:54:55;;;;;;;;;;;18.10;99.90;;;;;;5039111;28;20175;-67
2022/06/11 04:57:22;;;;;;;;;;;18.10;99.90;;;;;;5048292;28;19925;-66
2022/06/11 04:59:49;;;;;;;;;;;18.30;99.90;;;;;;5039695;28;19934;-67
2022/06/11 05:02:16;;;;;;;;;;;18.40;99.90;;;;;;5041450;28;19925;-66
2022/06/11 05:04:45;;;;;;;;;;;18.50;99.90;;;;;;5062449;28;19932;-67
2022/06/11 05:07:11;;;;;;;;;;;18.60;99.90;;;;;;5040440;28;19924;-67
2022/06/11 05:09:38;;;;;;;;;;;18.70;99.90;;;;;;5038830;28;19925;-67
2022/06/11 05:12:07;;;;;;;;;;;18.70;99.90;;;;;;5034928;28;19925;-67
2022/06/11 05:14:33;;;;;;;;;;;18.80;99.90;;;;;;5039435;28;19925;-71
2022/06/11 05:17:01;;;;;;;;;;;18.80;99.90;;;;;;5048187;28;19936;-67
2022/06/11 05:19:28;;;;;;;;;;;18.90;99.90;;;;;;5043309;28;19925;-67
2022/06/11 05:21:56;;;;;;;;;;;19.00;99.90;;;;;;5044425;28;19932;-66
2022/06/11 05:24:23;;;;;;;;;;;19.10;99.90;;;;;;5047480;28;19939;-67
2022/06/11 05:26:51;;;;;;;;;;;19.20;99.90;;;;;;5047439;28;19936;-67
2022/06/11 05:29:22;;;;;;;;;;;19.30;99.90;;;;;;5047387;28;19932;-67
2022/06/11 05:31:48;;;;;;;;;;;19.30;99.90;;;;;;5039672;28;19925;-67
2022/06/11 05:34:15;;;;;;;;;;;19.40;99.90;;;;;;5033529;28;19925;-66
2022/06/11 05:36:42;;;;;;;;;;;19.40;99.90;;;;;;5050110;28;19925;-67
2022/06/11 05:39:10;;;;;;;;;;;19.30;99.90;;;;;;5038384;28;20018;-67
2022/06/11 05:41:37;;;;;;;;;;;19.40;99.90;;;;;;5047054;28;19932;-67
2022/06/11 05:44:05;;;;;;;;;;;19.40;99.90;;;;;;5047830;28;19925;-67
2022/06/11 05:46:32;;;;;;;;;;;19.60;99.90;;;;;;5045651;28;20347;-67
2022/06/11 05:49:00;;;;;;;;;;;19.60;99.90;;;;;;5034786;28;20397;-67
2022/06/11 05:51:31;;;;;;;;;;;19.70;99.90;;;;;;5035857;28;19925;-67
2022/06/11 05:53:58;;;;;;;;;;;19.80;99.90;;;;;;5047887;28;19925;-67
2022/06/11 05:56:27;;;;;;;;;;;19.80;99.90;;;;;;5041035;28;19925;-67
2022/06/11 05:58:55;;;;;;;;;;;19.90;99.90;;;;;;5043753;28;19925;-66
2022/06/11 06:01:24;;;;;;;;;;;19.90;99.90;;;;;;5042804;28;19948;-67
2022/06/11 06:03:51;;;;;;;;;;;19.80;99.90;;;;;;5045965;28;19929;-67
2022/06/11 06:06:18;;;;;;;;;;;20.00;99.90;;;;;;5045088;28;19925;-66
2022/06/11 06:08:45;;;;;;;;;;;20.00;99.90;;;;;;5047666;28;19925;-67
2022/06/11 06:11:12;;;;;;;;;;;20.00;99.90;;;;;;5043370;28;19968;-67
2022/06/11 06:13:49;;;;;;;;;;;20.20;99.90;;;;;;5043630;28;19932;-67
2022/06/11 06:16:16;;;;;;;;;;;20.20;99.90;;;;;;5051566;28;20402;-67
2022/06/11 06:18:43;;;;;;;;;;;20.30;99.90;;;;;;5051436;28;19925;-67
2022/06/11 06:21:10;;;;;;;;;;;20.20;99.90;;;;;;5050095;28;19924;-67
2022/06/11 06:23:37;;;;;;;;;;;20.30;99.90;;;;;;5050869;28;19924;-67
2022/06/11 06:26:04;;;;;;;;;;;20.30;99.90;;;;;;5040977;28;20344;-67
2022/06/11 06:28:31;;;;;;;;;;;20.40;99.90;;;;;;5051339;28;19925;-67
2022/06/11 06:31:00;;;;;;;;;;;20.50;99.90;;;;;;5041225;28;19986;-66
2022/06/11 06:33:27;;;;;;;;;;;20.50;99.90;;;;;;5047769;28;19929;-67
2022/06/11 06:35:53;;;;;;;;;;;20.50;99.90;;;;;;5044639;28;19925;-67
2022/06/11 06:38:20;;;;;;;;;;;20.60;99.90;;;;;;5049182;28;19932;-67
2022/06/11 06:40:47;;;;;;;;;;;20.60;99.90;;;;;;5050802;28;20454;-67
2022/06/11 06:43:14;;;;;;;;;;;20.70;99.90;;;;;;5051488;28;19931;-67
2022/06/11 06:45:40;;;;;;;;;;;20.80;99.90;;;;;;5045808;28;19925;-66
2022/06/11 06:48:09;;;;;;;;;;;20.80;99.90;;;;;;5048855;28;19925;-67
2022/06/11 06:50:36;;;;;;;;;;;20.90;99.90;;;;;;5037428;28;19929;-67
2022/06/11 06:53:03;;;;;;;;;;;20.90;99.90;;;;;;5043979;28;19999;-66
2022/06/11 06:55:29;;;;;;;;;;;20.90;99.90;;;;;;5053930;28;19929;-67
2022/06/11 06:57:56;;;;;;;;;;;20.90;99.90;;;;;;5051332;28;19925;-66
2022/06/11 07:00:23;;;;;;;;;;;21.10;99.90;;;;;;5050340;28;19939;-67
2022/06/11 07:02:53;;;;;;;;;;;21.10;99.90;;;;;;5051389;28;19924;-67
2022/06/11 07:05:22;;;;;;;;;;;21.00;99.90;;;;;;5045046;28;20399;-66
2022/06/11 07:07:49;;;;;;;;;;;21.30;99.90;;;;;;5044317;28;19957;-66
2022/06/11 07:10:17;;;;;;;;;;;21.30;99.90;;;;;;5044663;28;19925;-66
2022/06/11 07:12:43;;;;;;;;;;;21.30;99.90;;;;;;5036917;28;19979;-67
2022/06/11 07:15:11;;;;;;;;;;;21.40;99.90;;;;;;5041985;28;19924;-66
2022/06/11 07:17:39;;;;;;;;;;;21.40;99.90;;;;;;5039131;28;19933;-67
2022/06/11 07:20:08;;;;;;;;;;;21.50;99.90;;;;;;5048492;28;19928;-67
2022/06/11 07:22:38;;;;;;;;;;;21.50;99.90;;;;;;5049217;28;19928;-67
2022/06/11 07:25:07;;;;;;;;;;;21.70;99.90;;;;;;5045429;28;20293;-66
2022/06/11 07:27:37;;;;;;;;;;;21.70;99.90;;;;;;5043565;28;19932;-66
2022/06/11 07:30:05;;;;;;;;;;;21.60;99.90;;;;;;5038790;28;19925;-66
2022/06/11 07:32:35;;;;;;;;;;;21.60;99.90;;;;;;5043870;28;19928;-66
2022/06/11 07:35:02;;;;;;;;;;;21.70;99.90;;;;;;5045860;28;19929;-66
2022/06/11 07:37:29;;;;;;;;;;;21.70;99.90;;;;;;5044750;28;19936;-65
2022/06/11 07:39:57;;;;;;;;;;;21.70;99.90;;;;;;5038764;28;20359;-66
2022/06/11 07:42:24;;;;;;;;;;;21.70;99.90;;;;;;5049270;28;19947;-67
2022/06/11 07:44:51;;;;;;;;;;;21.60;99.90;;;;;;5049189;28;19925;-66
2022/06/11 07:47:53;;;;;;;;;;;21.60;99.90;;;;;;5038997;28;19933;-66
2022/06/11 07:50:06;;;;;;;;;;;21.70;99.90;;;;;;5041336;28;20307;-66
2022/06/11 07:52:33;;;;;;;;;;;21.70;99.90;;;;;;5043819;28;19932;-67
2022/06/11 07:55:01;;;;;;;;;;;21.80;99.90;;;;;;5046111;28;20384;-66
2022/06/11 07:57:28;;;;;;;;;;;21.80;99.90;;;;;;5046798;28;19950;-67
2022/06/11 07:59:54;;;;;;;;;;;21.80;99.90;;;;;;5045658;28;19928;-68
2022/06/11 08:02:22;;;;;;;;;;;21.90;99.90;;;;;;5041257;28;19944;-67
2022/06/11 08:04:49;;;;;;;;;;;21.60;99.90;;;;;;5037175;28;19925;-67
2022/06/11 08:07:16;;;;;;;;;;;21.50;99.90;;;;;;5038895;28;19925;-67
2022/06/11 08:09:43;;;;;;;;;;;21.30;99.90;;;;;;5034571;28;19933;-67
2022/06/11 08:12:11;;;;;;;;;;;21.50;99.90;;;;;;5048578;28;19925;-67
2022/06/11 08:14:38;;;;;;;;;;;21.60;99.90;;;;;;5042971;28;19932;-67
2022/06/11 08:17:05;;;;;;;;;;;21.80;99.90;;;;;;5038454;28;19925;-68
2022/06/11 08:19:32;;;;;;;;;;;21.90;99.90;;;;;;5062730;28;19933;-67
2022/06/11 08:21:59;;;;;;;;;;;22.10;99.90;;;;;;5041480;28;19933;-67
2022/06/11 08:24:25;;;;;;;;;;;21.90;99.90;;;;;;5065497;28;19925;-67
2022/06/11 08:26:52;;;;;;;;;;;21.60;99.90;;;;;;5043957;28;19929;-67
2022/06/11 08:29:20;;;;;;;;;;;21.50;99.90;;;;;;5046073;28;19925;-68
2022/06/11 08:31:47;;;;;;;;;;;21.50;99.90;;;;;;5035813;28;20343;-67
2022/06/11 08:34:14;;;;;;;;;;;21.40;99.90;;;;;;5045928;28;20379;-67
2022/06/11 08:36:41;;;;;;;;;;;21.40;99.90;;;;;;5033533;28;19925;-67
2022/06/11 08:39:08;;;;;;;;;;;21.40;99.90;;;;;;5041603;28;19925;-67
2022/06/11 08:41:36;;;;;;;;;;;21.30;99.90;;;;;;5033036;28;19925;-67
2022/06/11 08:44:05;;;;;;;;;;;21.20;99.90;;;;;;5037823;28;20019;-68
2022/06/11 08:46:34;;;;;;;;;;;21.20;99.90;;;;;;5042924;28;19929;-68
2022/06/11 08:49:07;;;;;;;;;;;21.50;99.90;;;;;;5041387;28;19924;-68
2022/06/11 08:51:36;;;;;;;;;;;21.70;99.90;;;;;;5040457;28;19932;-67
2022/06/11 08:54:04;;;;;;;;;;;21.80;99.90;;;;;;5040056;28;20434;-68
2022/06/11 08:56:35;;;;;;;;;;;21.80;99.90;;;;;;5044956;28;19925;-67
2022/06/11 08:59:16;;;;;;;;;;;21.80;99.90;;;;;;5048831;28;20027;-67
2022/06/11 09:01:49;;;;;;;;;;;21.80;99.90;;;;;;5047146;28;19936;-68
2022/06/11 09:04:26;;;;;;;;;;;21.70;99.90;;;;;;5042134;28;19924;-69
2022/06/11 09:07:05;;;;;;;;;;;21.90;99.90;;;;;;5048315;28;20388;-68
2022/06/11 09:09:39;;;;;;;;;;;22.10;99.90;;;;;;5061674;28;19924;-68
2022/06/11 09:12:13;;;;;;;;;;;22.20;99.90;;;;;;5048570;28;19925;-68
2022/06/11 09:14:52;;;;;;;;;;;22.40;99.90;;;;;;5045905;28;19940;-68
2022/06/11 09:17:29;;;;;;;;;;;22.50;99.90;;;;;;5053736;28;19929;-68
2022/06/11 09:20:03;;;;;;;;;;;22.60;99.90;;;;;;5041879;28;19925;-67
2022/06/11 09:22:36;;;;;;;;;;;22.80;99.90;;;;;;5046399;28;20006;-68
2022/06/11 09:25:13;;;;;;;;;;;23.10;99.90;;;;;;5049395;28;20344;-67
2022/06/11 09:27:40;;;;;;;;;;;23.40;99.90;;;;;;5042491;28;19994;-68
2022/06/11 09:30:08;;;;;;;;;;;23.50;99.90;;;;;;5061756;28;19941;-67
2022/06/11 09:32:39;;;;;;;;;;;23.40;99.90;;;;;;5040438;28;19979;-67
2022/06/11 09:35:09;;;;;;;;;;;23.40;99.90;;;;;;5044811;28;19925;-68
2022/06/11 09:37:38;;;;;;;;;;;23.40;99.90;;;;;;5037492;28;19960;-68
2022/06/11 09:40:08;;;;;;;;;;;23.70;99.90;;;;;;5035636;28;20020;-67
2022/06/11 09:42:46;;;;;;;;;;;23.90;99.90;;;;;;5036938;28;20345;-68
2022/06/11 09:45:16;;;;;;;;;;;23.90;99.90;;;;;;5043371;28;19929;-66
2022/06/11 09:47:51;;;;;;;;;;;23.90;99.90;;;;;;5051811;28;19924;-67
2022/06/11 09:50:22;;;;;;;;;;;23.60;99.90;;;;;;5048687;28;19932;-68
2022/06/11 09:52:53;;;;;;;;;;;23.60;99.90;;;;;;5048090;28;19925;-68
2022/06/11 09:55:27;;;;;;;;;;;23.60;99.90;;;;;;5048127;28;20575;-67
2022/06/11 09:58:01;;;;;;;;;;;23.80;99.90;;;;;;5052619;28;19929;-67
2022/06/11 10:00:29;;;;;;;;;;;23.80;99.90;;;;;;5049943;28;19935;-68
2022/06/11 10:03:05;;;;;;;;;;;23.60;99.90;;;;;;5050273;28;19928;-68
2022/06/11 10:05:35;;;;;;;;;;;23.60;99.90;;;;;;5058593;28;20053;-68
2022/06/11 10:08:04;;;;;;;;;;;23.90;99.90;;;;;;5045549;28;19936;-68
2022/06/11 10:10:34;;;;;;;;;;;24.20;99.90;;;;;;5062670;28;20292;-68
2022/06/11 10:13:02;;;;;;;;;;;24.10;99.90;;;;;;5050514;28;19929;-68
2022/06/11 10:15:32;;;;;;;;;;;24.00;99.90;;;;;;5040072;28;20334;-68
2022/06/11 10:18:02;;;;;;;;;;;23.90;99.90;;;;;;5037719;28;20384;-68
2022/06/11 10:20:31;;;;;;;;;;;24.10;99.90;;;;;;5065946;28;19932;-67
2022/06/11 10:23:03;;;;;;;;;;;24.10;99.90;;;;;;5039388;28;19929;-68
2022/06/11 10:28:26;;;;;;;;;;;23.70;99.90;;;;;;5031132;28;19940;-66
2022/06/11 10:30:54;;;;;;;;;;;23.40;99.90;;;;;;5014219;28;20508;-66
2022/06/11 10:33:27;;;;;;;;;;;23.50;99.90;;;;;;5044609;28;19984;-66
2022/06/11 10:35:57;;;;;;;;;;;23.50;99.90;;;;;;5013615;28;19933;-66
2022/06/11 10:38:28;;;;;;;;;;;23.70;99.90;;;;;;5047988;28;19968;-66
2022/06/11 10:40:55;;;;;;;;;;;23.90;99.90;;;;;;5021210;28;19957;-66
2022/06/11 10:43:26;;;;;;;;;;;24.00;99.90;;;;;;5027729;28;19995;-65
2022/06/11 10:45:53;;;;;;;;;;;24.10;99.90;;;;;;5034814;28;19932;-66
2022/06/11 10:48:21;;;;;;;;;;;24.20;99.90;;;;;;5017876;28;19933;-66
2022/06/11 10:50:49;;;;;;;;;;;23.70;99.90;;;;;;5042016;28;20118;-66
2022/06/11 10:53:18;;;;;;;;;;;23.70;99.90;;;;;;5021511;28;19933;-66
2022/06/11 10:55:47;;;;;;;;;;;24.00;99.90;;;;;;5023857;28;19929;-65
2022/06/11 10:58:16;;;;;;;;;;;24.30;99.90;;;;;;5034896;28;19925;-65
2022/06/11 11:00:47;;;;;;;;;;;24.70;99.90;;;;;;5027691;28;19929;-67
2022/06/11 11:03:15;;;;;;;;;;;24.80;99.90;;;;;;5026759;28;20008;-66
2022/06/11 11:05:48;;;;;;;;;;;24.50;99.90;;;;;;5033432;28;19925;-68
2022/06/11 11:08:17;;;;;;;;;;;24.30;99.90;;;;;;5026284;28;19926;-67
2022/06/11 11:10:45;;;;;;;;;;;24.50;99.90;;;;;;5030302;28;19929;-66
2022/06/11 11:13:22;;;;;;;;;;;24.40;99.90;;;;;;5038100;28;19961;-66
2022/06/11 11:15:55;;;;;;;;;;;24.30;99.90;;;;;;5022645;28;19925;-67
2022/06/11 11:18:23;;;;;;;;;;;24.00;99.90;;;;;;5027671;28;19925;-65
2022/06/11 11:20:51;;;;;;;;;;;24.20;99.90;;;;;;5043129;28;19929;-66
2022/06/11 11:23:23;;;;;;;;;;;24.30;99.90;;;;;;5028415;28;20451;-67
2022/06/11 11:25:52;;;;;;;;;;;24.70;99.90;;;;;;5047232;28;19931;-67
2022/06/11 11:28:23;;;;;;;;;;;24.80;99.90;;;;;;5027937;28;19929;-66
2022/06/11 11:30:57;;;;;;;;;;;25.00;99.90;;;;;;5035465;28;20274;-75
2022/06/11 11:33:25;;;;;;;;;;;25.70;99.90;;;;;;5031670;28;19929;-63
2022/06/11 11:36:00;;;;;;;;;;;25.70;99.90;;;;;;5025377;28;19929;-66
2022/06/11 11:38:28;;;;;;;;;;;26.10;99.90;;;;;;5042323;28;19940;-69
2022/06/11 11:40:56;;;;;;;;;;;26.40;99.90;;;;;;5020495;28;20453;-66
2022/06/11 11:43:24;;;;;;;;;;;27.00;99.90;;;;;;5028175;28;19933;-67
2022/06/11 11:45:56;;;;;;;;;;;28.00;99.90;;;;;;5016822;28;19934;-65
2022/06/11 11:48:27;;;;;;;;;;;28.00;99.90;;;;;;5017549;28;20301;-66
2022/06/11 11:50:55;;;;;;;;;;;28.10;99.90;;;;;;5022692;28;19925;-66
2022/06/11 11:53:24;;;;;;;;;;;28.10;99.90;;;;;;5024251;28;19925;-65
2022/06/11 11:55:57;;;;;;;;;;;28.50;99.90;;;;;;5029361;28;19925;-66
2022/06/11 11:58:28;;;;;;;;;;;28.80;99.90;;;;;;5031504;28;19937;-65
2022/06/11 12:00:56;;;;;;;;;;;29.60;99.90;;;;;;5027852;28;19925;-63
2022/06/11 12:03:25;;;;;;;;;;;29.80;99.90;;;;;;5021931;28;19975;-66
2022/06/11 12:05:53;;;;;;;;;;;30.20;99.90;;;;;;5022183;28;19936;-65
2022/06/11 12:08:22;;;;;;;;;;;30.40;99.90;;;;;;5043172;28;20431;-66
2022/06/11 12:10:50;;;;;;;;;;;31.00;99.90;;;;;;5028373;28;20332;-65
2022/06/11 12:13:26;;;;;;;;;;;32.20;99.90;;;;;;5028794;28;19925;-66
2022/06/11 12:15:55;;;;;;;;;;;31.90;99.90;;;;;;5045033;28;19933;-65
2022/06/11 12:18:25;;;;;;;;;;;31.50;99.90;;;;;;5038421;28;19971;-63
2022/06/11 12:20:54;;;;;;;;;;;31.90;99.90;;;;;;5018690;28;19947;-66
2022/06/11 12:23:23;;;;;;;;;;;31.60;99.90;;;;;;5031539;28;20550;-65
2022/06/11 12:25:54;;;;;;;;;;;31.50;99.90;;;;;;5032947;28;19925;-65
2022/06/11 12:28:23;;;;;;;;;;;31.80;99.90;;;;;;5034241;28;20370;-66
2022/06/11 12:30:51;;;;;;;;;;;30.70;99.90;;;;;;5022651;28;19925;-65
2022/06/11 12:33:19;;;;;;;;;;;31.20;99.90;;;;;;5017203;28;19940;-65
2022/06/11 12:35:48;;;;;;;;;;;30.90;99.90;;;;;;5043414;28;19952;-65
2022/06/11 12:38:20;;;;;;;;;;;30.30;99.90;;;;;;5027505;28;19990;-67
2022/06/11 12:40:51;;;;;;;;;;;30.30;99.90;;;;;;5025178;28;19925;-65
2022/06/11 12:43:31;;;;;;;;;;;30.40;99.90;;;;;;5025057;28;19929;-66
2022/06/11 12:46:04;;;;;;;;;;;31.80;99.90;;;;;;5021333;28;19945;-65
2022/06/11 12:48:39;;;;;;;;;;;30.80;99.90;;;;;;5021121;28;20085;-67
2022/06/11 12:51:10;;;;;;;;;;;29.90;99.90;;;;;;5037120;28;19972;-69
2022/06/11 12:53:55;;;;;;;;;;;30.20;99.90;;;;;;5040490;28;19925;-70
2022/06/11 12:56:28;;;;;;;;;;;31.00;99.90;;;;;;5022158;28;20423;-72
2022/06/11 12:59:04;;;;;;;;;;;30.70;99.90;;;;;;5027157;28;19932;-66
2022/06/11 13:01:40;;;;;;;;;;;30.90;99.90;;;;;;5019938;28;19925;-66
2022/06/11 13:04:21;;;;;;;;;;;30.60;99.90;;;;;;5044864;28;19925;-69
2022/06/11 13:06:55;;;;;;;;;;;31.00;99.90;;;;;;5027053;28;19926;-76
2022/06/11 13:09:30;;;;;;;;;;;31.60;99.90;;;;;;5026494;28;19925;-71
2022/06/11 13:12:04;;;;;;;;;;;30.70;99.90;;;;;;5040197;28;19925;-71
2022/06/11 13:14:43;;;;;;;;;;;30.70;99.90;;;;;;5015424;28;19984;-71
2022/06/11 13:17:14;;;;;;;;;;;30.60;99.90;;;;;;5042311;28;19950;-71
2022/06/11 13:19:45;;;;;;;;;;;30.60;99.90;;;;;;5021605;28;19926;-67
2022/06/11 13:22:16;;;;;;;;;;;30.70;99.90;;;;;;5044031;28;20424;-66
2022/06/11 13:24:48;;;;;;;;;;;30.80;99.90;;;;;;5047514;28;19925;-66
2022/06/11 13:27:24;;;;;;;;;;;30.50;99.90;;;;;;5020056;28;19933;-66
2022/06/11 13:29:57;;;;;;;;;;;30.70;99.90;;;;;;5033003;28;19928;-66
2022/06/11 13:32:30;;;;;;;;;;;31.20;99.90;;;;;;5045291;28;19936;-65
2022/06/11 13:35:02;;;;;;;;;;;32.10;99.90;;;;;;5021473;28;19932;-63
2022/06/11 13:37:38;;;;;;;;;;;31.40;99.90;;;;;;5027911;28;20173;-67
2022/06/11 13:40:21;;;;;;;;;;;30.70;99.90;;;;;;5034104;28;19925;-67
2022/06/11 13:42:53;;;;;;;;;;;31.00;99.90;;;;;;5037969;28;20395;-68
2022/06/11 13:45:35;;;;;;;;;;;31.80;99.90;;;;;;5044810;28;19929;-67
2022/06/11 13:48:08;;;;;;;;;;;32.70;99.90;;;;;;5035728;28;20456;-67
2022/06/11 13:50:43;;;;;;;;;;;32.20;99.90;;;;;;5042068;28;19925;-68
2022/06/11 13:56:08;;;;;;;;;;;30.70;99.90;;;;;;5018802;28;19933;-67
2022/06/11 13:58:40;;;;;;;;;;;30.90;99.90;;;;;;5019995;28;19933;-67
2022/06/11 14:01:17;;;;;;;;;;;30.60;99.90;;;;;;5024332;28;19932;-66
2022/06/11 14:04:05;;;;;;;;;;;30.10;99.90;;;;;;5035957;28;19929;-66
2022/06/11 14:06:35;;;;;;;;;;;30.00;99.90;;;;;;5031974;28;19925;-66
2022/06/11 14:10:20;;;;;;;;;;;29.60;99.90;;;;;;5045714;28;20297;-66
2022/06/11 14:11:53;;;;;;;;;;;29.20;99.90;;;;;;5021099;28;19929;-68
2022/06/11 14:14:31;;;;;;;;;;;29.10;99.90;;;;;;5018107;28;19933;-66
2022/06/11 14:16:59;;;;;;;;;;;29.40;99.90;;;;;;5036018;28;19925;-66
2022/06/11 14:19:40;;;;;;;;;;;29.50;99.90;;;;;;5048546;28;19932;-66
2022/06/11 14:22:26;;;;;;;;;;;29.80;99.90;;;;;;5035383;28;19975;-67
2022/06/11 14:24:57;;;;;;;;;;;29.80;99.90;;;;;;5017323;28;19925;-66
2022/06/11 14:27:35;;;;;;;;;;;30.20;99.90;;;;;;5044120;28;19933;-67
2022/06/11 14:30:04;;;;;;;;;;;30.40;99.90;;;;;;5016168;28;20400;-67
2022/06/11 14:32:31;;;;;;;;;;;30.50;99.90;;;;;;5044095;28;19929;-68
2022/06/11 14:35:00;;;;;;;;;;;31.40;99.90;;;;;;5028061;28;19987;-67
2022/06/11 14:37:28;;;;;;;;;;;31.40;99.90;;;;;;5031249;28;19968;-67
2022/06/11 14:40:03;;;;;;;;;;;31.80;99.90;;;;;;5035108;28;20483;-67